createdAt,value
2023-08-14T00:01:23.116Z,16.76
2023-08-14T00:03:52.921Z,16.82
2023-08-14T00:06:20.850Z,16.86
2023-08-14T00:08:48.642Z,16.86
2023-08-14T00:11:16.460Z,16.88
2023-08-14T00:14:10.946Z,16.85
2023-08-14T00:16:38.749Z,16.78
2023-08-14T00:19:06.694Z,16.73
2023-08-14T00:21:34.605Z,16.69
2023-08-14T00:24:03.278Z,16.64
2023-08-14T00:26:31.162Z,16.59
2023-08-14T00:28:58.884Z,16.54
2023-08-14T00:31:26.809Z,16.52
2023-08-14T00:33:54.630Z,16.45
2023-08-14T00:36:22.737Z,16.44
2023-08-14T00:38:51.255Z,16.42
2023-08-14T00:41:19.564Z,16.41
2023-08-14T00:43:47.679Z,16.37
2023-08-14T00:46:16.286Z,16.35
2023-08-14T00:48:44.476Z,16.34
2023-08-14T00:51:13.110Z,16.31
2023-08-14T00:53:41.087Z,16.31
2023-08-14T00:56:09.271Z,16.31
2023-08-14T00:58:37.016Z,16.28
2023-08-14T01:01:06.917Z,16.28
2023-08-14T01:03:37.698Z,16.25
2023-08-14T01:06:05.540Z,16.23
2023-08-14T01:08:34.395Z,16.24
2023-08-14T01:11:15.164Z,16.21
2023-08-14T01:13:49.753Z,16.20
2023-08-14T01:16:24.685Z,16.20
2023-08-14T01:18:56.757Z,16.18
2023-08-14T01:22:11.040Z,16.17
2023-08-14T01:25:14.369Z,16.13
2023-08-14T01:27:42.448Z,16.13
2023-08-14T01:30:10.597Z,16.13
2023-08-14T01:32:38.705Z,16.09
2023-08-14T01:35:07.360Z,16.10
2023-08-14T01:37:52.332Z,16.07
2023-08-14T01:40:34.139Z,16.07
2023-08-14T01:43:12.862Z,16.04
2023-08-14T01:45:43.037Z,16.03
2023-08-14T01:48:12.502Z,15.99
2023-08-14T01:50:41.571Z,15.99
2023-08-14T01:53:09.498Z,15.96
2023-08-14T01:55:37.241Z,15.93
2023-08-14T01:58:05.622Z,15.93
2023-08-14T02:00:35.180Z,15.92
2023-08-14T02:03:03.830Z,15.86
2023-08-14T02:05:31.825Z,15.79
2023-08-14T02:08:02.244Z,15.73
2023-08-14T02:10:30.449Z,15.65
2023-08-14T02:12:58.248Z,15.63
2023-08-14T02:15:26.100Z,15.58
2023-08-14T02:17:53.929Z,15.53
2023-08-14T02:20:21.809Z,15.51
2023-08-14T02:22:49.649Z,15.48
2023-08-14T02:25:17.557Z,15.46
2023-08-14T02:27:45.311Z,15.42
2023-08-14T02:30:13.349Z,15.41
2023-08-14T02:32:41.510Z,15.44
2023-08-14T02:35:09.703Z,15.45
2023-08-14T02:37:38.292Z,15.45
2023-08-14T02:40:06.688Z,15.44
2023-08-14T02:42:34.688Z,15.41
2023-08-14T02:45:02.838Z,15.42
2023-08-14T02:47:30.809Z,15.39
2023-08-14T02:49:58.641Z,15.41
2023-08-14T02:52:27.780Z,15.39
2023-08-14T02:54:55.726Z,15.38
2023-08-14T02:57:23.638Z,15.32
2023-08-14T02:59:51.429Z,15.32
2023-08-14T03:02:19.531Z,15.31
2023-08-14T03:04:47.630Z,15.28
2023-08-14T03:07:15.442Z,15.28
2023-08-14T03:09:43.251Z,15.28
2023-08-14T03:12:11.099Z,15.28
2023-08-14T03:14:38.924Z,15.25
2023-08-14T03:17:06.701Z,15.25
2023-08-14T03:19:34.661Z,15.24
2023-08-14T03:22:02.918Z,15.25
2023-08-14T03:24:30.762Z,15.23
2023-08-14T03:26:58.523Z,15.23
2023-08-14T03:29:26.248Z,15.24
2023-08-14T03:31:54.190Z,15.20
2023-08-14T03:34:22.247Z,15.21
2023-08-14T03:36:50.976Z,15.17
2023-08-14T03:39:20.314Z,15.18
2023-08-14T03:41:48.156Z,15.15
2023-08-14T03:44:15.889Z,15.15
2023-08-14T03:46:43.752Z,15.11
2023-08-14T03:49:11.816Z,15.11
2023-08-14T03:51:39.657Z,15.05
2023-08-14T03:54:07.956Z,15.04
2023-08-14T03:56:37.577Z,15.04
2023-08-14T03:59:06.466Z,15.03
2023-08-14T04:01:35.393Z,15.03
2023-08-14T04:04:04.040Z,15.03
2023-08-14T04:06:32.049Z,15.01
2023-08-14T04:09:02.826Z,14.97
2023-08-14T04:11:31.824Z,15.01
2023-08-14T04:13:59.774Z,14.98
2023-08-14T04:16:42.674Z,14.94
2023-08-14T04:19:19.512Z,14.96
2023-08-14T04:21:48.027Z,14.97
2023-08-14T04:24:15.961Z,14.93
2023-08-14T04:26:43.940Z,14.94
2023-08-14T04:29:13.673Z,14.94
2023-08-14T04:31:42.749Z,14.94
2023-08-14T04:34:11.779Z,14.94
2023-08-14T04:36:41.759Z,14.94
2023-08-14T04:39:10.068Z,14.93
2023-08-14T04:41:39.186Z,14.96
2023-08-14T04:44:07.173Z,14.98
2023-08-14T04:46:49.572Z,15.01
2023-08-14T04:49:22.193Z,15.01
2023-08-14T04:51:49.905Z,15.05
2023-08-14T04:54:19.284Z,15.07
2023-08-14T04:56:47.136Z,15.08
2023-08-14T04:59:15.191Z,15.14
2023-08-14T05:01:44.962Z,15.18
2023-08-14T05:04:14.879Z,15.21
2023-08-14T05:06:43.311Z,15.31
2023-08-14T05:11:42.279Z,15.53
2023-08-14T05:14:10.215Z,15.66
2023-08-14T05:16:39.341Z,15.83
2023-08-14T05:19:07.203Z,16.00
2023-08-14T05:21:35.045Z,16.21
2023-08-14T05:24:02.850Z,16.42
2023-08-14T05:26:30.668Z,16.64
2023-08-14T05:28:58.822Z,16.82
2023-08-14T05:31:26.709Z,16.99
2023-08-14T05:33:54.534Z,17.16
2023-08-14T05:36:22.371Z,17.33
2023-08-14T05:38:50.828Z,17.41
2023-08-14T05:41:20.272Z,17.53
2023-08-14T05:43:49.920Z,17.57
2023-08-14T05:46:20.279Z,17.68
2023-08-14T05:48:48.082Z,17.78
2023-08-14T05:51:15.896Z,17.91
2023-08-14T05:53:43.960Z,17.98
2023-08-14T05:56:11.675Z,18.08
2023-08-14T05:58:43.086Z,18.16
2023-08-14T06:01:11.433Z,18.28
2023-08-14T06:03:45.083Z,18.37
2023-08-14T06:06:13.386Z,18.47
2023-08-14T06:08:41.384Z,18.56
2023-08-14T06:11:09.243Z,18.68
2023-08-14T06:13:37.217Z,18.80
2023-08-14T06:16:05.318Z,18.97
2023-08-14T06:18:33.061Z,19.14
2023-08-14T06:21:00.926Z,19.16
2023-08-14T06:23:28.815Z,19.29
2023-08-14T06:25:56.607Z,19.39
2023-08-14T06:28:24.542Z,19.48
2023-08-14T06:30:52.525Z,19.52
2023-08-14T06:33:20.366Z,19.62
2023-08-14T06:35:48.068Z,19.65
2023-08-14T06:38:15.839Z,19.70
2023-08-14T06:40:43.750Z,19.71
2023-08-14T06:43:11.413Z,19.74
2023-08-14T06:45:39.162Z,19.81
2023-08-14T06:48:07.370Z,19.83
2023-08-14T06:50:35.185Z,19.89
2023-08-14T06:53:03.248Z,19.94
2023-08-14T06:55:30.979Z,20.08
2023-08-14T06:57:58.953Z,20.17
2023-08-14T07:00:26.771Z,20.25
2023-08-14T07:02:54.468Z,20.32
2023-08-14T07:05:22.325Z,20.47
2023-08-14T07:07:51.165Z,20.39
2023-08-14T07:10:20.137Z,20.35
2023-08-14T07:12:49.666Z,20.34
2023-08-14T07:15:17.628Z,20.32
2023-08-14T07:17:45.475Z,20.32
2023-08-14T07:20:13.556Z,20.47
2023-08-14T07:22:42.098Z,20.76
2023-08-14T07:25:10.133Z,21.03
2023-08-14T07:27:37.894Z,21.43
2023-08-14T07:30:06.744Z,21.68
2023-08-14T07:32:34.905Z,21.86
2023-08-14T07:35:03.682Z,21.92
2023-08-14T07:37:31.474Z,21.86
2023-08-14T07:39:59.498Z,21.83
2023-08-14T07:42:27.294Z,21.86
2023-08-14T07:44:55.067Z,21.93
2023-08-14T07:47:23.011Z,22.22
2023-08-14T07:49:50.957Z,22.46
2023-08-14T07:52:19.019Z,22.72
2023-08-14T07:54:47.132Z,22.99
2023-08-14T07:57:15.077Z,23.25
2023-08-14T07:59:42.841Z,23.52
2023-08-14T08:02:10.573Z,23.71
2023-08-14T08:04:39.937Z,23.93
2023-08-14T08:07:10.923Z,24.10
2023-08-14T08:09:39.174Z,24.34
2023-08-14T08:12:07.882Z,24.51
2023-08-14T08:14:37.016Z,24.58
2023-08-14T08:17:05.668Z,24.56
2023-08-14T08:19:33.722Z,24.48
2023-08-14T08:22:01.619Z,24.48
2023-08-14T08:24:29.370Z,24.53
2023-08-14T08:26:57.150Z,24.73
2023-08-14T08:29:25.063Z,24.82
2023-08-14T08:31:52.889Z,24.92
2023-08-14T08:34:20.760Z,25.06
2023-08-14T08:36:48.570Z,25.20
2023-08-14T08:39:19.357Z,25.35
2023-08-14T08:41:50.089Z,25.48
2023-08-14T08:44:24.454Z,25.58
2023-08-14T08:47:10.728Z,25.72
2023-08-14T08:49:43.993Z,25.84
2023-08-14T08:52:12.629Z,26.10
2023-08-14T08:54:41.831Z,26.23
2023-08-14T08:57:11.181Z,26.36
2023-08-14T08:59:41.957Z,26.53
2023-08-14T09:02:10.551Z,26.64
2023-08-14T09:04:38.777Z,26.54
2023-08-14T09:07:08.186Z,26.26
2023-08-14T09:09:36.134Z,26.07
2023-08-14T09:12:04.414Z,25.88
2023-08-14T09:14:32.602Z,25.79
2023-08-14T09:17:04.163Z,25.84
2023-08-14T09:19:32.416Z,26.22
2023-08-14T09:22:01.624Z,26.63
2023-08-14T09:24:33.495Z,26.87
2023-08-14T09:27:02.488Z,26.99
2023-08-14T09:29:32.938Z,27.11
2023-08-14T09:32:03.366Z,27.15
2023-08-14T09:34:31.694Z,27.28
2023-08-14T09:37:00.093Z,27.40
2023-08-14T09:39:27.908Z,27.63
2023-08-14T09:41:56.166Z,27.86
2023-08-14T09:44:26.920Z,28.00
2023-08-14T09:46:55.805Z,28.15
2023-08-14T09:49:27.235Z,28.34
2023-08-14T09:51:59.217Z,28.41
2023-08-14T09:54:35.389Z,28.39
2023-08-14T09:57:09.376Z,28.49
2023-08-14T09:59:38.340Z,28.80
2023-08-14T10:02:16.365Z,28.93
2023-08-14T10:04:49.385Z,28.83
2023-08-14T10:07:19.258Z,28.84
2023-08-14T10:09:55.737Z,29.08
2023-08-14T10:12:30.198Z,29.21
2023-08-14T10:15:15.867Z,29.53
2023-08-14T10:17:58.605Z,29.89
2023-08-14T10:20:29.495Z,30.02
2023-08-14T10:22:58.921Z,30.23
2023-08-14T10:25:29.135Z,30.19
2023-08-14T10:27:57.728Z,30.27
2023-08-14T10:30:26.884Z,30.37
2023-08-14T10:32:55.220Z,30.37
2023-08-14T10:35:25.000Z,30.53
2023-08-14T10:38:08.437Z,30.47
2023-08-14T10:40:52.398Z,30.45
2023-08-14T10:43:26.773Z,30.65
2023-08-14T10:45:54.700Z,30.87
2023-08-14T10:48:24.230Z,30.96
2023-08-14T10:51:02.018Z,31.15
2023-08-14T10:53:33.982Z,30.92
2023-08-14T10:56:01.992Z,30.94
2023-08-14T10:58:33.011Z,30.80
2023-08-14T11:01:03.889Z,31.02
2023-08-14T11:03:35.241Z,31.15
2023-08-14T11:06:03.238Z,31.16
2023-08-14T11:08:32.181Z,31.19
2023-08-14T11:11:00.141Z,31.46
2023-08-14T11:13:33.029Z,31.56
2023-08-14T11:16:01.450Z,31.63
2023-08-14T11:18:29.280Z,31.63
2023-08-14T11:21:10.577Z,31.66
2023-08-14T11:23:46.860Z,31.83
2023-08-14T11:26:14.778Z,31.81
2023-08-14T11:28:42.591Z,31.86
2023-08-14T11:31:10.377Z,32.04
2023-08-14T11:33:38.337Z,32.39
2023-08-14T11:36:11.801Z,32.21
2023-08-14T11:38:41.568Z,31.84
2023-08-14T11:41:09.424Z,31.62
2023-08-14T11:43:40.215Z,30.96
2023-08-14T11:46:08.415Z,30.53
2023-08-14T11:48:39.978Z,30.91
2023-08-14T11:51:08.705Z,31.43
2023-08-14T11:53:36.825Z,31.88
2023-08-14T11:56:05.237Z,32.29
2023-08-14T11:58:33.601Z,32.51
2023-08-14T12:01:01.579Z,31.95
2023-08-14T12:03:29.600Z,31.45
2023-08-14T12:06:05.939Z,31.07
2023-08-14T12:08:34.080Z,30.84
2023-08-14T12:11:02.416Z,30.41
2023-08-14T12:13:34.863Z,30.77
2023-08-14T12:16:17.692Z,31.26
2023-08-14T12:18:47.458Z,31.12
2023-08-14T12:21:15.526Z,30.89
2023-08-14T12:23:54.442Z,30.50
2023-08-14T12:26:24.022Z,30.20
2023-08-14T12:28:51.842Z,30.12
2023-08-14T12:31:19.652Z,30.33
2023-08-14T12:33:53.438Z,30.37
2023-08-14T12:36:24.525Z,30.20
2023-08-14T12:38:52.253Z,30.41
2023-08-14T12:41:20.244Z,31.15
2023-08-14T12:43:48.205Z,31.74
2023-08-14T12:46:16.314Z,32.08
2023-08-14T12:48:44.259Z,32.38
2023-08-14T12:51:12.161Z,32.61
2023-08-14T12:53:40.052Z,32.89
2023-08-14T12:56:08.386Z,33.02
2023-08-14T12:58:36.217Z,33.26
2023-08-14T13:01:05.474Z,33.26
2023-08-14T13:03:37.446Z,33.68
2023-08-14T13:06:08.197Z,34.04
2023-08-14T13:08:36.053Z,34.04
2023-08-14T13:11:04.079Z,34.05
2023-08-14T13:13:31.905Z,34.19
2023-08-14T13:16:01.730Z,33.89
2023-08-14T13:18:30.197Z,34.15
2023-08-14T13:20:58.106Z,34.33
2023-08-14T13:23:26.119Z,34.32
2023-08-14T13:25:53.995Z,34.13
2023-08-14T13:28:21.721Z,33.69
2023-08-14T13:30:52.156Z,33.84
2023-08-14T13:33:20.192Z,34.35
2023-08-14T13:35:48.237Z,34.49
2023-08-14T13:38:16.049Z,34.68
2023-08-14T13:40:43.972Z,34.64
2023-08-14T13:43:11.788Z,34.80
2023-08-14T13:45:40.122Z,34.94
2023-08-14T13:48:09.195Z,35.00
2023-08-14T13:50:38.547Z,35.02
2023-08-14T13:53:07.147Z,35.12
2023-08-14T13:55:35.455Z,35.19
2023-08-14T13:58:04.174Z,35.24
2023-08-14T14:00:31.889Z,34.97
2023-08-14T14:03:00.599Z,34.95
2023-08-14T14:05:29.481Z,34.15
2023-08-14T14:07:58.324Z,34.13
2023-08-14T14:10:27.814Z,33.44
2023-08-14T14:15:26.710Z,32.95
2023-08-14T14:17:54.726Z,32.73
2023-08-14T14:20:22.661Z,32.65
2023-08-14T14:22:50.683Z,32.29
2023-08-14T14:25:19.080Z,31.90
2023-08-14T14:27:46.944Z,31.84
2023-08-14T14:30:14.819Z,32.21
2023-08-14T14:32:42.576Z,32.13
2023-08-14T14:35:10.592Z,31.87
2023-08-14T14:37:38.371Z,31.60
2023-08-14T14:40:07.184Z,31.54
2023-08-14T14:42:34.964Z,31.74
2023-08-14T14:45:02.910Z,32.15
2023-08-14T14:47:30.657Z,32.03
2023-08-14T14:49:58.534Z,31.97
2023-08-14T14:52:26.427Z,32.41
2023-08-14T14:54:54.228Z,32.48
2023-08-14T14:57:22.256Z,32.22
2023-08-14T14:59:50.338Z,32.03
2023-08-14T15:02:28.742Z,31.84
2023-08-14T15:04:57.852Z,31.56
2023-08-14T15:07:25.743Z,31.33
2023-08-14T15:09:53.451Z,31.09
2023-08-14T15:12:21.175Z,30.88
2023-08-14T15:14:48.953Z,31.28
2023-08-14T15:17:17.001Z,31.12
2023-08-14T15:19:45.420Z,30.82
2023-08-14T15:22:13.167Z,30.70
2023-08-14T15:24:40.877Z,30.44
2023-08-14T15:27:08.676Z,30.17
2023-08-14T15:29:36.385Z,29.93
2023-08-14T15:32:04.262Z,29.71
2023-08-14T15:34:31.980Z,29.45
2023-08-14T15:36:59.732Z,29.30
2023-08-14T15:39:31.659Z,29.11
2023-08-14T15:41:59.521Z,28.97
2023-08-14T15:44:27.366Z,28.84
2023-08-14T15:46:55.136Z,28.87
2023-08-14T15:49:22.983Z,28.96
2023-08-14T15:51:50.819Z,29.04
2023-08-14T15:54:18.540Z,29.10
2023-08-14T15:56:46.512Z,29.07
2023-08-14T15:59:14.299Z,29.08
2023-08-14T16:01:42.100Z,29.08
2023-08-14T16:04:09.825Z,29.08
2023-08-14T16:06:37.754Z,29.08
2023-08-14T16:09:05.517Z,28.99
2023-08-14T16:11:33.263Z,28.92
2023-08-14T16:14:01.199Z,28.68
2023-08-14T16:16:28.977Z,28.38
2023-08-14T16:18:56.891Z,28.14
2023-08-14T16:21:24.691Z,27.89
2023-08-14T16:23:52.489Z,27.73
2023-08-14T16:26:20.288Z,27.54
2023-08-14T16:28:48.051Z,27.47
2023-08-14T16:31:15.941Z,27.42
2023-08-14T16:33:43.765Z,27.33
2023-08-14T16:36:11.655Z,27.23
2023-08-14T16:38:39.466Z,27.11
2023-08-14T16:41:07.335Z,27.06
2023-08-14T16:43:35.527Z,26.96
2023-08-14T16:46:03.915Z,26.96
2023-08-14T16:48:32.423Z,27.11
2023-08-14T16:51:04.106Z,27.23
2023-08-14T16:53:32.188Z,27.22
2023-08-14T16:56:00.393Z,27.15
2023-08-14T16:58:28.554Z,27.04
2023-08-14T17:00:56.878Z,26.88
2023-08-14T17:03:25.681Z,26.74
2023-08-14T17:06:01.800Z,26.68
2023-08-14T17:08:31.509Z,26.68
2023-08-14T17:11:04.028Z,26.70
2023-08-14T17:13:32.816Z,26.74
2023-08-14T17:16:00.840Z,26.74
2023-08-14T17:18:29.219Z,26.74
2023-08-14T17:20:57.019Z,26.70
2023-08-14T17:23:25.294Z,26.64
2023-08-14T17:25:58.122Z,26.64
2023-08-14T17:28:28.259Z,26.50
2023-08-14T17:30:57.927Z,26.43
2023-08-14T17:33:28.571Z,26.39
2023-08-14T17:35:56.944Z,26.37
2023-08-14T17:38:25.242Z,26.33
2023-08-14T17:40:53.488Z,26.30
2023-08-14T17:43:21.753Z,26.34
2023-08-14T17:45:51.818Z,26.37
2023-08-14T17:48:20.947Z,26.29
2023-08-14T17:50:53.570Z,26.23
2023-08-14T17:53:21.901Z,26.15
2023-08-14T17:55:50.016Z,26.05
2023-08-14T17:58:19.016Z,25.92
2023-08-14T18:00:53.714Z,25.79
2023-08-14T18:03:22.107Z,25.75
2023-08-14T18:05:54.486Z,25.72
2023-08-14T18:08:23.497Z,25.62
2023-08-14T18:10:51.931Z,25.54
2023-08-14T18:13:20.004Z,25.55
2023-08-14T18:15:49.993Z,25.54
2023-08-14T18:18:18.248Z,25.48
2023-08-14T18:20:50.920Z,25.42
2023-08-14T18:23:20.525Z,25.40
2023-08-14T18:25:57.761Z,25.35
2023-08-14T18:28:27.155Z,25.27
2023-08-14T18:30:55.126Z,25.26
2023-08-14T18:33:23.158Z,25.16
2023-08-14T18:35:51.303Z,25.16
2023-08-14T18:38:19.319Z,25.06
2023-08-14T18:40:47.288Z,25.07
2023-08-14T18:43:15.267Z,25.03
2023-08-14T18:45:43.626Z,24.97
2023-08-14T18:48:12.170Z,24.92
2023-08-14T18:50:40.430Z,24.84
2023-08-14T18:53:09.271Z,24.69
2023-08-14T18:55:41.076Z,24.58
2023-08-14T18:58:09.115Z,24.51
2023-08-14T19:00:37.000Z,24.41
2023-08-14T19:03:06.261Z,24.32
2023-08-14T19:05:34.855Z,24.26
2023-08-14T19:08:03.328Z,24.25
2023-08-14T19:10:33.008Z,24.24
2023-08-14T19:13:00.896Z,24.22
2023-08-14T19:15:28.998Z,24.28
2023-08-14T19:17:57.270Z,24.24
2023-08-14T19:20:28.551Z,24.20
2023-08-14T19:23:00.303Z,24.15
2023-08-14T19:25:28.453Z,24.13
2023-08-14T19:27:58.109Z,24.08
2023-08-14T19:30:27.146Z,24.11
2023-08-14T19:32:55.019Z,24.04
2023-08-14T19:35:23.860Z,24.01
2023-08-14T19:37:51.680Z,23.96
2023-08-14T19:40:19.695Z,23.92
2023-08-14T19:42:47.804Z,23.90
2023-08-14T19:45:15.839Z,23.92
2023-08-14T19:47:44.619Z,23.94
2023-08-14T19:50:12.479Z,24.01
2023-08-14T19:52:40.345Z,23.96
2023-08-14T19:55:09.493Z,24.00
2023-08-14T19:57:37.558Z,24.00
2023-08-14T20:00:06.549Z,24.00
2023-08-14T20:02:34.930Z,23.97
2023-08-14T20:05:03.870Z,23.97
2023-08-14T20:07:32.571Z,23.90
2023-08-14T20:10:01.723Z,23.90
2023-08-14T20:12:29.723Z,23.86
2023-08-14T20:14:57.989Z,23.80
2023-08-14T20:17:26.018Z,23.76
2023-08-14T20:19:54.308Z,23.74
2023-08-14T20:22:25.625Z,23.70
2023-08-14T20:24:53.846Z,23.63
2023-08-14T20:27:21.947Z,23.57
2023-08-14T20:29:50.741Z,23.52
2023-08-14T20:32:20.385Z,23.50
2023-08-14T20:34:48.437Z,23.46
2023-08-14T20:37:16.752Z,23.36
2023-08-14T20:39:46.144Z,23.30
2023-08-14T20:42:14.281Z,23.28
2023-08-14T20:44:42.029Z,23.23
2023-08-14T20:47:10.177Z,23.18
2023-08-14T20:49:38.126Z,23.18
2023-08-14T20:52:06.419Z,23.12
2023-08-14T20:54:34.268Z,23.12
2023-08-14T20:57:02.835Z,23.09
2023-08-14T20:59:30.714Z,23.08
2023-08-14T21:01:58.769Z,23.07
2023-08-14T21:04:26.758Z,23.04
2023-08-14T21:06:54.560Z,23.05
2023-08-14T21:09:22.309Z,23.07
2023-08-14T21:11:50.224Z,23.07
2023-08-14T21:14:17.983Z,23.02
2023-08-14T21:16:45.830Z,23.08
2023-08-14T21:19:14.102Z,23.09
2023-08-14T21:21:46.979Z,23.16
2023-08-14T21:24:14.724Z,23.22
2023-08-14T21:26:42.532Z,23.20
2023-08-14T21:29:10.418Z,23.18
2023-08-14T21:31:38.254Z,23.15
2023-08-14T21:34:06.453Z,23.15
2023-08-14T21:36:34.330Z,23.16
2023-08-14T21:39:02.708Z,23.14
2023-08-14T21:41:30.588Z,23.16
2023-08-14T21:43:58.354Z,23.18
2023-08-14T21:46:29.920Z,23.20
2023-08-14T21:48:58.288Z,23.22
2023-08-14T21:51:26.536Z,23.22
2023-08-14T21:53:54.320Z,23.16
2023-08-14T21:56:22.061Z,23.12
2023-08-14T21:58:49.886Z,23.09
2023-08-14T22:01:17.830Z,23.07
2023-08-14T22:03:45.737Z,23.08
2023-08-14T22:06:13.622Z,23.05
2023-08-14T22:08:41.393Z,23.07
2023-08-14T22:11:09.393Z,23.15
2023-08-14T22:13:37.425Z,23.20
2023-08-14T22:16:05.466Z,23.20
2023-08-14T22:18:33.474Z,23.23
2023-08-14T22:21:01.534Z,23.28
2023-08-14T22:23:31.627Z,23.23
2023-08-14T22:25:59.433Z,23.18
2023-08-14T22:28:27.167Z,23.14
2023-08-14T22:30:54.961Z,23.09
2023-08-14T22:33:22.704Z,23.09
2023-08-14T22:35:54.823Z,23.04
2023-08-14T22:38:22.810Z,23.04
2023-08-14T22:40:52.146Z,23.01
2023-08-14T22:43:20.420Z,22.98
2023-08-14T22:48:21.033Z,22.98
2023-08-14T22:50:49.156Z,22.95
2023-08-14T22:53:18.984Z,23.01
2023-08-14T22:55:49.823Z,23.02
2023-08-14T22:58:18.055Z,23.05
2023-08-14T23:00:46.125Z,23.07
2023-08-14T23:03:14.060Z,23.09
2023-08-14T23:05:42.038Z,23.11
2023-08-14T23:08:09.688Z,23.09
2023-08-14T23:10:37.643Z,23.05
2023-08-14T23:13:05.507Z,23.04
2023-08-14T23:15:33.856Z,23.02
2023-08-14T23:18:01.743Z,22.98
2023-08-14T23:20:32.482Z,23.01
2023-08-14T23:23:00.313Z,22.99
2023-08-14T23:25:28.074Z,22.98
2023-08-14T23:27:55.890Z,22.95
2023-08-14T23:30:23.727Z,22.84
2023-08-14T23:32:51.582Z,22.77
2023-08-14T23:35:19.792Z,22.70
2023-08-14T23:37:47.589Z,22.67
2023-08-14T23:40:15.267Z,22.60
2023-08-14T23:42:43.050Z,22.57
2023-08-14T23:45:11.074Z,22.49
2023-08-14T23:47:38.858Z,22.46
2023-08-14T23:50:07.328Z,22.41
2023-08-14T23:52:35.306Z,22.35
2023-08-14T23:55:03.060Z,22.32
2023-08-14T23:57:30.959Z,22.30
2023-08-14T23:59:58.740Z,22.29
